Terminal Aerodrome Forecast
Issued by NWS Charleston, WV

Current Version | Previous Version | Text Only | Print | Product List | Glossary Off
Versions: 1 2 3 4 5 6 7 8 9 10 11 12 13 14 15 16 17 18 19 20 21 22 23 24 25 26 27

000
FTUS41 KRLX 171400 AAA
TAFBKW
TAF AMD
KBKW 171405Z 1714/1812 13008KT P6SM FEW011 BKN035 BKN045
     FM171500 VRB03KT P6SM SCT020 BKN040
     FM171900 33005KT P6SM SCT035
     FM180900 00000KT P6SM BKN008=

USA.gov is the U.S. government's official web portal to all federal, state and local government web resources and services.